Time;durP1;ratioP1;P1;durP2;ratioP2;P2;SDS_P1;SDS_P2;PMS_P1;PMS_P2;Temp;Humidity;BMP_temperature;BMP_pressure;BME280_temperature;BME280_humidity;BME280_pressure;Samples;Min_cycle;Max_cycle;Signal;HPM_P1;HPM_P2
2021/01/29 00:01:57;;;;;;;7.72;4.53;;;;;;;-1.15;100.00;98722.70;1801289;79;21796;-83
2021/01/29 00:05:03;;;;;;;7.65;4.95;;;;;;;-1.16;100.00;98735.77;1802641;79;21339;-82
2021/01/29 00:08:08;;;;;;;8.25;4.70;;;;;;;-1.18;100.00;98734.55;1802822;79;21181;-83
2021/01/29 00:11:13;;;;;;;8.13;4.58;;;;;;;-1.21;100.00;98734.84;1801085;79;21125;-83
2021/01/29 00:14:19;;;;;;;5.95;4.22;;;;;;;-1.21;100.00;98736.69;1803047;79;21822;-83
2021/01/29 00:17:25;;;;;;;4.97;3.50;;;;;;;-1.23;100.00;98738.64;1803050;79;21286;-83
2021/01/29 00:20:32;;;;;;;10.93;5.22;;;;;;;-1.26;100.00;98742.47;1803035;79;21279;-82
2021/01/29 00:23:38;;;;;;;8.08;4.78;;;;;;;-1.28;100.00;98751.13;1802994;79;21779;-82
2021/01/29 00:26:47;;;;;;;8.03;4.60;;;;;;;-1.31;100.00;98745.57;1802146;79;21327;-83
2021/01/29 00:29:52;;;;;;;6.78;3.83;;;;;;;-1.32;100.00;98745.22;1803100;79;22229;-82
2021/01/29 00:32:52;;;;;;;7.47;4.08;;;;;;;-1.33;100.00;98756.92;1801467;79;21735;-82
2021/01/29 00:35:59;;;;;;;8.75;4.25;;;;;;;-1.31;100.00;98765.69;1801739;79;21362;-82
2021/01/29 00:39:05;;;;;;;5.83;4.00;;;;;;;-1.30;100.00;98763.36;1803423;79;21279;-82
2021/01/29 00:42:10;;;;;;;8.50;4.37;;;;;;;-1.30;100.00;98766.04;1802538;79;22614;-81
2021/01/29 00:45:18;;;;;;;6.75;3.72;;;;;;;-1.26;100.00;98769.80;1802900;79;21330;-83
2021/01/29 00:48:24;;;;;;;7.62;4.10;;;;;;;-1.26;100.00;98761.25;1801579;79;21299;-82
2021/01/29 00:51:30;;;;;;;6.22;3.90;;;;;;;-1.25;100.00;98763.44;1803036;79;21288;-82
2021/01/29 00:54:36;;;;;;;10.08;4.55;;;;;;;-1.21;100.00;98768.88;1803096;79;21165;-82
2021/01/29 00:57:41;;;;;;;14.15;4.30;;;;;;;-1.20;100.00;98769.23;1801311;79;21324;-82
2021/01/29 01:00:59;;;;;;;6.50;4.08;;;;;;;-1.22;100.00;98771.19;1802602;79;21189;-83
2021/01/29 01:04:08;;;;;;;8.23;4.65;;;;;;;-1.22;100.00;98773.87;1803111;79;21197;-83
2021/01/29 01:07:15;;;;;;;10.20;4.58;;;;;;;-1.24;100.00;98772.67;1801648;79;21331;-83
2021/01/29 01:10:39;;;;;;;8.98;4.95;;;;;;;-1.27;100.00;98777.47;1802584;79;21296;-82
2021/01/29 01:13:47;;;;;;;12.58;5.47;;;;;;;-1.30;100.00;98767.88;1773324;81;21287;-82
2021/01/29 01:16:59;;;;;;;10.15;4.65;;;;;;;-1.32;100.00;98777.42;1716683;81;21355;-83
2021/01/29 01:20:10;;;;;;;10.48;4.53;;;;;;;-1.35;100.00;98781.70;1774110;81;21304;-82
2021/01/29 01:23:16;;;;;;;9.60;4.62;;;;;;;-1.37;100.00;98783.66;1776933;81;21236;-82
2021/01/29 01:26:21;;;;;;;7.78;4.83;;;;;;;-1.35;100.00;98767.45;1776542;81;21351;-83
2021/01/29 01:29:28;;;;;;;10.43;4.62;;;;;;;-1.36;100.00;98767.94;1700930;81;21287;-83
2021/01/29 01:32:33;;;;;;;8.78;4.60;;;;;;;-1.35;99.96;98779.02;1776846;81;21882;-83
2021/01/29 01:35:57;;;;;;;7.87;4.72;;;;;;;-1.36;99.73;98777.33;1775675;81;21326;-83
2021/01/29 01:39:04;;;;;;;8.25;5.08;;;;;;;-1.36;99.47;98777.33;1775374;81;21347;-83
2021/01/29 01:42:10;;;;;;;7.28;5.12;;;;;;;-1.40;99.08;98779.94;1776875;81;21330;-81
2021/01/29 01:45:40;;;;;;;5.87;4.25;;;;;;;-1.38;98.83;98781.97;1776904;81;21339;-83
2021/01/29 01:49:12;;;;;;;7.87;5.05;;;;;;;-1.36;98.63;98787.22;1775543;81;21823;-83
2021/01/29 01:52:41;;;;;;;6.58;4.42;;;;;;;-1.36;98.25;98783.20;1776514;81;21291;-83
2021/01/29 01:55:54;;;;;;;6.63;4.57;;;;;;;-1.37;97.73;98783.66;1774837;81;21188;-82
2021/01/29 01:59:22;;;;;;;7.80;4.17;;;;;;;-1.40;96.91;98793.84;1776041;81;21342;-82
2021/01/29 02:02:34;;;;;;;7.30;3.90;;;;;;;-1.42;96.40;98796.64;1768729;81;21771;-83
2021/01/29 02:05:58;;;;;;;8.03;4.60;;;;;;;-1.41;96.01;98802.84;1777238;81;21164;-83
2021/01/29 02:09:08;;;;;;;5.65;3.95;;;;;;;-1.40;95.55;98805.41;1776705;81;21343;-83
2021/01/29 02:12:19;;;;;;;7.50;4.15;;;;;;;-1.45;94.72;98804.98;1776652;81;21191;-82
2021/01/29 02:15:29;;;;;;;7.25;4.70;;;;;;;-1.47;93.93;98812.30;1806903;79;21275;-83
2021/01/29 02:19:04;;;;;;;11.18;4.42;;;;;;;-1.48;93.13;98821.33;1808663;79;21315;-83
2021/01/29 02:22:57;;;;;;;7.67;4.58;;;;;;;-1.52;92.22;98811.02;1808505;79;21161;-82
2021/01/29 02:27:03;;;;;;;7.55;4.83;;;;;;;-1.57;91.35;98820.80;1808402;79;21354;-83
2021/01/29 02:30:23;;;;;;;7.95;5.22;;;;;;;-1.61;90.92;98829.61;1778041;79;21211;-83
2021/01/29 02:33:59;;;;;;;10.28;4.95;;;;;;;-1.58;91.01;98831.19;1807062;79;21954;-82
2021/01/29 02:37:32;;;;;;;9.20;5.87;;;;;;;-1.59;90.99;98826.81;1808365;79;21847;-82
2021/01/29 02:40:46;;;;;;;7.45;5.37;;;;;;;-1.57;90.87;98830.19;1696700;83;21342;-81
2021/01/29 02:44:11;;;;;;;6.42;4.70;;;;;;;-1.57;90.78;98830.19;1696888;84;21948;-81
2021/01/29 02:47:39;;;;;;;8.83;5.12;;;;;;;-1.54;90.83;98840.66;1697914;83;21338;-82
2021/01/29 02:51:13;;;;;;;8.38;5.00;;;;;;;-1.52;90.73;98829.29;1698418;84;21282;-82
2021/01/29 02:55:00;;;;;;;7.15;5.33;;;;;;;-1.49;90.62;98841.09;1698331;84;21357;-81
2021/01/29 02:58:46;;;;;;;8.85;5.67;;;;;;;-1.48;90.10;98845.47;1696744;83;21342;-82
2021/01/29 03:02:03;;;;;;;9.85;5.25;;;;;;;-1.50;89.87;98846.11;1648351;84;21235;-81
2021/01/29 03:05:24;;;;;;;8.55;4.70;;;;;;;-1.51;89.59;98859.14;1698351;84;22273;-82
2021/01/29 03:08:35;;;;;;;7.47;5.10;;;;;;;-1.55;89.10;98863.10;1697832;83;21342;-82
2021/01/29 03:12:29;;;;;;;6.85;4.95;;;;;;;-1.57;88.98;98857.00;1698258;84;21354;-83
2021/01/29 03:16:05;;;;;;;8.75;5.15;;;;;;;-1.60;88.74;98858.14;1698264;84;21283;-83
2021/01/29 03:19:38;;;;;;;9.90;4.72;;;;;;;-1.63;87.96;98862.42;1697209;83;21730;-82
2021/01/29 03:23:15;;;;;;;11.73;5.53;;;;;;;-1.66;87.68;98873.41;1698051;83;21852;-82
2021/01/29 03:26:46;;;;;;;10.15;6.22;;;;;;;-1.67;87.40;98881.59;1698423;84;21298;-82
2021/01/29 03:30:13;;;;;;;;;;;;;;;-1.70;87.13;98880.50;1701019;84;21294;-82
2021/01/29 03:33:35;;;;;;;10.68;5.33;;;;;;;-1.71;87.08;98887.70;1690269;83;20272;-82
2021/01/29 03:37:34;;;;;;;7.58;5.40;;;;;;;-1.73;87.27;98888.84;1691059;85;21168;-82
2021/01/29 03:41:01;;;;;;;6.30;4.83;;;;;;;-1.75;87.37;98882.25;1726964;82;21200;-82
2021/01/29 03:44:31;;;;;;;6.37;5.00;;;;;;;-1.75;87.41;98888.10;1729588;81;21308;-82
2021/01/29 03:47:58;;;;;;;10.28;5.87;;;;;;;-1.72;87.46;98881.14;1729589;81;21363;-82
2021/01/29 03:51:29;;;;;;;9.38;5.80;;;;;;;-1.73;87.21;98886.16;1729601;83;21269;-82
2021/01/29 03:55:02;;;;;;;9.13;5.97;;;;;;;-1.76;87.03;98899.81;1732882;82;21343;-82
2021/01/29 03:58:59;;;;;;;10.23;6.03;;;;;;;-1.79;86.73;98888.85;1729585;81;21347;-82
2021/01/29 04:02:32;;;;;;;10.72;5.45;;;;;;;-1.84;86.35;98891.08;1729587;81;21273;-83
2021/01/29 04:06:15;;;;;;;7.90;5.08;;;;;;;-1.81;86.53;98892.17;1729595;83;21241;-82
2021/01/29 04:09:56;;;;;;;9.08;5.37;;;;;;;-1.78;86.69;98899.11;1728970;83;21328;-83
2021/01/29 04:13:18;;;;;;;10.38;5.85;;;;;;;-1.84;85.83;98908.01;1730905;81;21189;-83
2021/01/29 04:16:29;;;;;;;10.95;5.90;;;;;;;-1.82;86.13;98918.13;1735112;83;21288;-83
2021/01/29 04:19:36;;;;;;;11.93;5.40;;;;;;;-1.75;86.62;98926.97;1735019;83;21335;-82
2021/01/29 04:22:43;;;;;;;7.75;5.28;;;;;;;-1.71;86.53;98940.47;1734464;81;21237;-83
2021/01/29 04:25:51;;;;;;;8.93;5.20;;;;;;;-1.68;86.33;98940.22;1733242;83;21298;-83
2021/01/29 04:29:13;;;;;;;8.40;5.35;;;;;;;-1.68;86.05;98936.20;1734722;81;21327;-82
2021/01/29 04:32:22;;;;;;;9.43;5.92;;;;;;;-1.69;85.77;98940.72;1734855;81;21754;-82
2021/01/29 04:35:29;;;;;;;9.70;6.58;;;;;;;-1.64;85.87;98951.05;1734617;83;21330;-83
2021/01/29 04:38:49;;;;;;;7.83;6.22;;;;;;;-1.60;85.91;98948.44;1734746;81;21351;-82
2021/01/29 04:42:19;;;;;;;12.13;6.92;;;;;;;-1.53;86.08;98955.48;1716273;82;21159;-83
2021/01/29 04:46:14;;;;;;;10.90;7.10;;;;;;;-1.48;86.02;98955.42;1731503;82;21807;-83
2021/01/29 04:49:45;;;;;;;9.18;6.55;;;;;;;-1.45;85.85;98959.69;1740273;82;21875;-82
2021/01/29 04:53:24;;;;;;;13.48;6.80;;;;;;;-1.42;85.71;98962.09;1699352;84;21810;-82
2021/01/29 04:56:51;;;;;;;14.40;7.50;;;;;;;-1.41;85.49;98963.31;1669911;86;21368;-82
2021/01/29 05:00:31;;;;;;;13.13;6.53;;;;;;;-1.36;85.41;98971.81;1669263;86;21299;-82
2021/01/29 05:03:50;;;;;;;11.30;6.62;;;;;;;-1.34;85.17;98968.48;1654095;84;21322;-82
2021/01/29 05:08:04;;;;;;;10.88;6.58;;;;;;;-1.34;84.93;98975.20;1685615;84;21165;-82
2021/01/29 05:12:04;;;;;;;16.05;7.55;;;;;;;-1.31;84.83;98981.64;1697783;82;21700;-82
2021/01/29 05:15:39;;;;;;;12.03;7.58;;;;;;;-1.30;84.54;98975.30;1711528;83;21336;-82
2021/01/29 05:19:21;;;;;;;12.28;7.50;;;;;;;-1.30;84.45;98986.52;1731091;81;21192;-82
2021/01/29 05:22:41;;;;;;;11.75;7.25;;;;;;;-1.24;84.41;98983.78;1729365;81;21272;-82
2021/01/29 05:26:16;;;;;;;14.65;6.85;;;;;;;-1.21;84.17;98986.21;1734206;83;21318;-82
2021/01/29 05:30:00;;;;;;;14.55;6.87;;;;;;;-1.20;83.88;98994.61;1732259;81;21269;-82
2021/01/29 05:33:49;;;;;;;10.38;7.20;;;;;;;-1.19;83.89;98994.47;1733828;81;21295;-81
2021/01/29 05:37:25;;;;;;;11.90;7.53;;;;;;;-1.13;83.90;98983.69;1730729;83;21147;-81
2021/01/29 05:41:03;;;;;;;16.07;9.33;;;;;;;-1.04;83.64;98989.09;1694202;84;21298;-82
2021/01/29 05:44:18;;;;;;;20.15;8.70;;;;;;;-1.01;83.39;98996.04;1663518;86;21339;-82
2021/01/29 05:47:53;;;;;;;15.48;8.45;;;;;;;-0.94;83.29;98986.94;1688231;84;21914;-82
2021/01/29 05:51:32;;;;;;;16.97;9.23;;;;;;;-0.88;82.99;98991.30;1688380;83;21338;-82
2021/01/29 05:55:02;;;;;;;12.68;8.73;;;;;;;-0.91;82.53;98997.42;1693258;83;21310;-82
2021/01/29 05:58:23;;;;;;;18.10;9.65;;;;;;;-0.93;82.60;98996.72;1691107;84;21849;-81
2021/01/29 06:01:54;;;;;;;17.20;10.08;;;;;;;-0.89;82.66;99004.36;1689715;83;21239;-82
2021/01/29 06:05:19;;;;;;;19.82;9.53;;;;;;;-0.83;82.62;99002.97;1691894;83;21650;-83
2021/01/29 06:09:08;;;;;;;14.78;8.95;;;;;;;-0.82;82.67;99006.00;1691048;83;21298;-82
2021/01/29 06:12:33;;;;;;;17.85;10.05;;;;;;;-0.80;82.87;99010.27;1694525;82;22310;-82
2021/01/29 06:16:05;;;;;;;15.38;8.80;;;;;;;-0.74;82.98;99013.39;1693051;83;21630;-82
2021/01/29 06:19:28;;;;;;;15.10;10.35;;;;;;;-0.77;82.82;99018.03;1687871;83;21208;-82
2021/01/29 06:22:47;;;;;;;13.53;9.33;;;;;;;-0.80;82.88;99020.13;1690586;83;22051;-81
2021/01/29 06:26:11;;;;;;;11.20;8.15;;;;;;;-0.75;82.94;99027.77;1693755;83;22014;-82
2021/01/29 06:29:35;;;;;;;13.18;9.15;;;;;;;-0.77;82.96;99032.80;1692078;83;22077;-81
2021/01/29 06:33:06;;;;;;;16.52;9.68;;;;;;;-0.82;82.66;99025.64;1687977;83;21284;-82
2021/01/29 06:36:28;;;;;;;14.25;7.85;;;;;;;-0.84;82.72;99022.25;1688767;83;21337;-81
2021/01/29 06:40:05;;;;;;;14.65;9.08;;;;;;;-0.75;82.81;99031.80;1688910;83;21733;-79
2021/01/29 06:43:37;;;;;;;13.18;8.13;;;;;;;-0.68;82.60;99024.92;1688652;83;21307;-80
2021/01/29 06:47:02;;;;;;;12.10;8.23;;;;;;;-0.66;82.11;99029.64;1692511;83;21243;-79
2021/01/29 06:50:45;;;;;;;11.90;8.20;;;;;;;-0.63;82.10;99031.57;1725423;81;21298;-80
2021/01/29 06:54:18;;;;;;;13.93;8.23;;;;;;;-0.60;81.77;99029.12;1698664;83;21849;-80
2021/01/29 06:58:03;;;;;;;13.38;8.90;;;;;;;-0.50;81.92;99028.66;1669760;84;21842;-78
2021/01/29 07:01:31;;;;;;;15.50;9.45;;;;;;;-0.42;81.31;99022.11;1691001;83;21192;-80
2021/01/29 07:04:50;;;;;;;13.68;8.33;;;;;;;-0.36;80.83;99020.20;1660336;83;21342;-81
2021/01/29 07:08:21;;;;;;;21.87;9.80;;;;;;;-0.39;80.05;99012.41;1687279;83;21301;-79
2021/01/29 07:12:10;;;;;;;15.20;9.78;;;;;;;-0.39;80.05;99012.41;1689062;83;21743;-80
2021/01/29 07:15:41;;;;;;;19.07;8.75;;;;;;;-0.35;79.93;99016.52;1690210;83;21279;-81
2021/01/29 07:19:23;;;;;;;12.07;7.83;;;;;;;-0.29;79.91;99020.48;1691656;83;21908;-81
2021/01/29 07:22:57;;;;;;;15.28;8.58;;;;;;;-0.25;79.64;99023.25;1691984;83;21330;-81
2021/01/29 07:26:26;;;;;;;15.70;8.98;;;;;;;-0.13;79.67;99029.37;1695203;83;21977;-82
2021/01/29 07:30:09;;;;;;;16.87;9.48;;;;;;;-0.03;79.27;99032.91;1689211;83;21673;-80
2021/01/29 07:33:24;;;;;;;16.42;11.20;;;;;;;0.07;78.72;99028.88;1688980;83;21334;-81
2021/01/29 07:37:08;;;;;;;19.23;8.38;;;;;;;0.11;78.41;99030.30;1689067;83;21303;-81
2021/01/29 07:40:58;;;;;;;14.47;7.72;;;;;;;0.09;78.12;99033.11;1688518;83;21153;-81
2021/01/29 07:44:24;;;;;;;15.32;8.25;;;;;;;0.15;78.34;99029.03;1683818;83;21326;-82
2021/01/29 07:47:59;;;;;;;13.00;5.90;;;;;;;0.17;77.82;99025.20;1670148;84;21216;-83
2021/01/29 07:51:11;;;;;;;12.60;7.30;;;;;;;0.20;77.71;99026.27;1669961;84;21311;-82
2021/01/29 07:54:55;;;;;;;10.98;6.90;;;;;;;0.29;77.25;99021.04;1694981;83;21295;-83
2021/01/29 07:58:26;;;;;;;13.70;7.78;;;;;;;0.35;76.99;99023.14;1697837;84;21308;-83
2021/01/29 08:02:12;;;;;;;11.73;6.83;;;;;;;0.54;77.04;99026.31;1684988;83;21306;-81
2021/01/29 08:05:33;;;;;;;16.20;8.75;;;;;;;0.73;77.31;99019.55;1688473;83;21280;-82
2021/01/29 08:09:08;;;;;;;11.83;7.47;;;;;;;0.93;77.36;99011.76;1690215;83;21184;-82
2021/01/29 08:12:21;;;;;;;16.67;8.90;;;;;;;1.02;76.78;99016.77;1696034;83;21311;-81
2021/01/29 08:15:42;;;;;;;16.25;8.45;;;;;;;1.03;76.91;99009.03;1686913;83;22201;-82
2021/01/29 08:19:18;;;;;;;12.90;7.83;;;;;;;1.11;76.42;99012.34;1696733;83;21321;-81
2021/01/29 08:22:49;;;;;;;17.05;9.93;;;;;;;1.19;76.14;99002.53;1700777;83;21300;-81
2021/01/29 08:26:36;;;;;;;16.55;9.23;;;;;;;1.28;75.44;99006.19;1685672;81;21176;-83
2021/01/29 08:30:01;;;;;;;16.45;8.50;;;;;;;1.21;74.38;99005.06;1663006;84;21329;-82
2021/01/29 08:33:55;;;;;;;20.12;7.03;;;;;;;1.08;74.10;99008.09;1682970;83;21303;-82
2021/01/29 08:37:50;;;;;;;38.53;8.50;;;;;;;1.01;74.63;99004.30;1694025;83;21448;-81
2021/01/29 08:41:20;;;;;;;15.23;7.33;;;;;;;0.99;74.46;99007.16;1689621;83;21283;-81
2021/01/29 08:45:05;;;;;;;13.68;7.37;;;;;;;1.02;74.50;99004.64;1678101;82;21334;-80
2021/01/29 08:48:47;;;;;;;11.83;7.30;;;;;;;1.03;74.73;99015.77;1726538;81;21869;-80
2021/01/29 08:52:26;;;;;;;12.70;6.92;;;;;;;0.98;73.66;99015.36;1725612;81;21290;-78
2021/01/29 08:56:13;;;;;;;13.18;7.92;;;;;;;0.96;74.05;99011.47;1727750;81;21169;-80
2021/01/29 08:59:22;;;;;;;17.10;7.55;;;;;;;0.91;73.79;99010.23;1736406;81;21461;-80
2021/01/29 09:03:00;;;;;;;18.23;8.60;;;;;;;0.99;74.18;99004.46;1729498;81;21326;-81
2021/01/29 09:06:26;;;;;;;16.42;9.25;;;;;;;1.09;74.03;99009.81;1728540;81;21319;-79
2021/01/29 09:09:36;;;;;;;15.90;8.33;;;;;;;1.20;74.28;99000.69;1731636;81;21255;-77
2021/01/29 09:12:48;;;;;;;14.30;7.58;;;;;;;1.38;74.01;98988.63;1726233;80;21235;-79
2021/01/29 09:16:30;;;;;;;18.00;9.78;;;;;;;1.44;74.03;98990.20;1728316;81;21289;-78
2021/01/29 09:19:35;;;;;;;12.30;8.05;;;;;;;1.56;74.72;98979.23;1728685;81;21283;-77
2021/01/29 09:22:49;;;;;;;16.93;9.18;;;;;;;1.69;74.81;98968.41;1732011;81;21295;-77
2021/01/29 09:26:04;;;;;;;13.80;8.73;;;;;;;1.68;74.27;98966.72;1728275;81;21338;-79
2021/01/29 09:29:17;;;;;;;14.98;8.20;;;;;;;1.64;73.84;98960.44;1729542;81;21813;-77
2021/01/29 09:32:27;;;;;;;16.87;9.13;;;;;;;1.61;74.04;98962.11;1731033;81;21900;-78
2021/01/29 09:36:04;;;;;;;11.95;7.03;;;;;;;1.56;73.68;98961.21;1730506;81;21887;-77
2021/01/29 09:39:30;;;;;;;14.90;8.93;;;;;;;1.50;73.33;98957.75;1730320;81;21283;-77
2021/01/29 09:43:10;;;;;;;13.58;8.30;;;;;;;1.42;73.67;98961.73;1733191;81;21275;-76
2021/01/29 09:46:11;;;;;;;16.20;9.78;;;;;;;1.46;74.14;98956.39;1731351;81;21264;-78
2021/01/29 09:49:18;;;;;;;22.77;12.93;;;;;;;1.50;73.77;98965.84;1736434;81;21302;-78
2021/01/29 09:53:02;;;;;;;23.70;10.75;;;;;;;1.48;74.20;98955.73;1705352;81;21268;-78
2021/01/29 09:56:29;;;;;;;21.30;10.32;;;;;;;1.43;74.32;98952.64;1734682;81;21231;-81
2021/01/29 10:00:11;;;;;;;15.58;9.68;;;;;;;1.37;74.68;98954.60;1736350;81;21754;-80
2021/01/29 10:03:34;;;;;;;16.12;10.13;;;;;;;1.40;75.26;98956.97;1728377;81;21186;-78
2021/01/29 10:06:44;;;;;;;21.70;11.53;;;;;;;1.47;75.58;98954.03;1690681;83;21969;-80
2021/01/29 10:09:54;;;;;;;12.63;9.28;;;;;;;1.54;75.72;98957.30;1689008;83;21182;-80
2021/01/29 10:13:11;;;;;;;15.30;10.38;;;;;;;1.59;75.93;98964.93;1688446;83;21302;-80
2021/01/29 10:16:51;;;;;;;16.55;11.03;;;;;;;1.64;75.87;98949.15;1688207;83;21311;-81
2021/01/29 10:20:02;;;;;;;16.42;11.05;;;;;;;1.65;75.70;98948.68;1689578;83;21180;-81
2021/01/29 10:23:31;;;;;;;16.85;10.80;;;;;;;1.63;76.06;98943.42;1689139;83;21349;-81
2021/01/29 10:26:45;;;;;;;14.80;9.80;;;;;;;1.65;76.68;98942.78;1691607;83;22028;-81
2021/01/29 10:29:53;;;;;;;16.60;10.82;;;;;;;1.78;76.96;98940.53;1689217;84;22702;-80
2021/01/29 10:33:22;;;;;;;17.20;10.75;;;;;;;1.85;76.81;98946.67;1724778;82;21337;-81
2021/01/29 10:36:35;;;;;;;20.43;12.20;;;;;;;1.95;76.87;98932.61;1722491;82;21903;-80
2021/01/29 10:40:01;;;;;;;16.62;11.12;;;;;;;2.11;77.05;98932.73;1720395;82;21515;-80
2021/01/29 10:43:32;;;;;;;21.73;11.25;;;;;;;2.23;76.86;98922.56;1686488;81;21696;-80
2021/01/29 10:47:31;;;;;;;17.42;8.28;;;;;;;2.33;76.47;98917.06;1722910;81;21276;-80
2021/01/29 10:50:39;;;;;;;15.20;10.78;;;;;;;2.38;76.68;98916.08;1732170;81;21265;-82
2021/01/29 10:53:44;;;;;;;15.15;11.00;;;;;;;2.44;76.86;98919.48;1730752;81;21861;-81
2021/01/29 10:57:12;;;;;;;18.95;12.25;;;;;;;2.45;76.65;98921.21;1730764;81;21169;-83
2021/01/29 11:00:29;;;;;;;16.50;11.38;;;;;;;2.41;76.15;98923.38;1730542;81;21181;-80
2021/01/29 11:04:09;;;;;;;18.50;11.88;;;;;;;2.36;76.37;98907.31;1726489;81;21679;-83
2021/01/29 11:07:36;;;;;;;18.60;11.30;;;;;;;2.34;76.59;98912.84;1729346;81;21208;-80
2021/01/29 11:10:50;;;;;;;18.00;11.28;;;;;;;2.26;75.80;98897.47;1716149;81;21239;-82
2021/01/29 11:14:32;;;;;;;22.75;12.33;;;;;;;2.17;75.96;98907.85;1728348;81;21526;-81
2021/01/29 11:18:00;;;;;;;22.07;12.05;;;;;;;2.17;76.18;98900.27;1690992;83;22221;-82
2021/01/29 11:21:33;;;;;;;20.27;13.68;;;;;;;2.16;75.80;98901.24;1724660;81;21145;-82
2021/01/29 11:25:06;;;;;;;17.82;10.82;;;;;;;2.11;76.43;98902.22;1715016;81;21293;-85
2021/01/29 11:28:34;;;;;;;16.02;10.82;;;;;;;2.08;75.98;98902.05;1728047;81;21861;-80
2021/01/29 11:31:54;;;;;;;19.82;11.12;;;;;;;2.01;75.69;98899.11;1727043;81;21304;-80
2021/01/29 11:35:23;;;;;;;16.10;11.45;;;;;;;1.98;76.17;98895.40;1729798;81;21557;-78
2021/01/29 11:39:00;;;;;;;15.78;10.95;;;;;;;1.95;75.31;98894.34;1731972;81;21299;-80
2021/01/29 11:42:30;;;;;;;17.27;11.20;;;;;;;1.91;75.68;98892.96;1727962;81;22014;-79
2021/01/29 11:45:40;;;;;;;19.32;12.95;;;;;;;1.88;75.64;98887.87;1733684;81;21377;-80
2021/01/29 11:49:03;;;;;;;16.65;11.10;;;;;;;1.83;75.60;98887.49;1705162;81;21395;-80
2021/01/29 11:52:33;;;;;;;18.02;11.90;;;;;;;1.85;76.35;98881.46;1710381;82;21279;-79
2021/01/29 11:55:52;;;;;;;16.23;12.05;;;;;;;1.92;76.50;98884.37;1699846;82;21192;-80
2021/01/29 11:59:34;;;;;;;23.02;12.85;;;;;;;1.98;76.23;98879.72;1682190;82;21330;-80
2021/01/29 12:02:52;;;;;;;18.02;11.40;;;;;;;1.98;76.16;98880.56;1591940;89;21393;-80
2021/01/29 12:06:20;;;;;;;20.72;12.30;;;;;;;2.02;76.22;98878.38;1590646;89;21203;-81
2021/01/29 12:09:46;;;;;;;25.10;13.20;;;;;;;2.02;76.13;98875.68;1707030;81;21242;-82
2021/01/29 12:13:15;;;;;;;19.87;13.35;;;;;;;1.98;76.24;98875.17;1706563;82;21347;-81
2021/01/29 12:16:37;;;;;;;17.67;12.37;;;;;;;2.04;76.24;98870.99;1699524;82;21210;-82
2021/01/29 12:19:49;;;;;;;22.10;12.05;;;;;;;2.03;75.61;98872.84;1704825;82;21283;-80
2021/01/29 12:23:20;;;;;;;18.87;13.15;;;;;;;2.05;75.62;98857.34;1707376;82;21745;-81
2021/01/29 12:26:52;;;;;;;16.50;11.30;;;;;;;2.01;74.46;98857.81;1701685;82;21313;-80
2021/01/29 12:30:38;;;;;;;18.87;12.05;;;;;;;2.05;74.69;98849.25;1846635;76;22208;-79
2021/01/29 12:33:55;;;;;;;21.12;12.00;;;;;;;2.02;74.75;98859.02;1767419;80;21295;-76
2021/01/29 12:37:18;;;;;;;19.70;12.28;;;;;;;2.04;74.53;98849.42;1733114;82;21163;-77
2021/01/29 12:40:40;;;;;;;18.87;12.60;;;;;;;2.07;74.57;98849.11;1742054;81;21302;-78
2021/01/29 12:44:08;;;;;;;18.80;12.13;;;;;;;2.13;74.36;98850.33;1766783;80;21294;-77
2021/01/29 12:47:58;;;;;;;18.17;12.43;;;;;;;2.11;74.03;98846.41;1754844;81;21287;-77
2021/01/29 12:51:16;;;;;;;18.87;11.68;;;;;;;2.08;74.03;98848.61;1747837;81;21551;-77
2021/01/29 12:54:38;;;;;;;28.30;13.15;;;;;;;2.08;74.18;98853.50;1747987;81;21254;-78
2021/01/29 12:57:43;;;;;;;15.43;10.70;;;;;;;2.11;74.33;98852.31;1726323;81;22533;-77
2021/01/29 13:00:50;;;;;;;18.02;11.50;;;;;;;2.13;74.47;98849.82;1741397;81;21195;-78
2021/01/29 13:04:05;;;;;;;20.27;11.93;;;;;;;2.14;74.41;98835.83;1741472;81;21369;-78
2021/01/29 13:07:27;;;;;;;19.15;11.70;;;;;;;2.16;74.53;98827.90;1739625;81;21184;-78
2021/01/29 13:10:47;;;;;;;19.80;11.40;;;;;;;2.22;74.18;98827.80;1743589;81;21204;-78
2021/01/29 13:14:31;;;;;;;23.00;12.98;;;;;;;2.18;74.25;98827.26;1741173;81;21373;-78
2021/01/29 13:17:50;;;;;;;19.95;12.07;;;;;;;2.18;74.65;98821.86;1683262;84;21850;-78
2021/01/29 13:21:02;;;;;;;18.37;12.78;;;;;;;2.19;74.90;98807.36;1683399;81;21306;-78
2021/01/29 13:24:08;;;;;;;18.60;12.65;;;;;;;2.17;74.84;98806.69;1740278;81;21197;-77
2021/01/29 13:27:18;;;;;;;24.70;13.38;;;;;;;2.18;75.04;98809.72;1723932;81;21598;-78
2021/01/29 13:30:40;;;;;;;19.65;12.53;;;;;;;2.17;75.00;98806.69;1751035;80;21315;-78
2021/01/29 13:33:47;;;;;;;18.80;12.47;;;;;;;2.20;75.31;98808.20;1782920;79;21834;-78
2021/01/29 13:37:31;;;;;;;21.05;12.63;;;;;;;2.22;75.04;98806.21;1763724;79;21284;-78
2021/01/29 13:40:37;;;;;;;24.40;13.58;;;;;;;2.21;75.10;98807.19;1780949;79;21310;-79
2021/01/29 13:43:36;;;;;;;25.00;13.05;;;;;;;2.15;75.20;98796.55;1780606;79;21200;-78
2021/01/29 13:46:37;;;;;;;17.37;11.40;;;;;;;2.19;75.51;98793.03;1781971;79;21217;-78
2021/01/29 13:49:48;;;;;;;19.40;11.73;;;;;;;2.20;75.36;98794.20;1779036;79;21843;-78
2021/01/29 13:52:59;;;;;;;19.65;11.97;;;;;;;2.17;75.04;98789.66;1781750;79;21244;-78
2021/01/29 13:56:45;;;;;;;18.92;12.03;;;;;;;2.11;74.46;98791.13;1783233;79;21355;-77
2021/01/29 14:00:24;;;;;;;15.60;10.63;;;;;;;2.07;74.50;98784.38;1778336;79;21527;-77
2021/01/29 14:03:35;;;;;;;19.60;11.45;;;;;;;2.11;74.36;98785.73;1694958;82;21249;-76
2021/01/29 14:06:41;;;;;;;21.45;11.25;;;;;;;2.10;73.88;98783.20;1782780;79;21319;-80
2021/01/29 14:09:50;;;;;;;15.95;10.95;;;;;;;2.08;73.81;98776.63;1780586;79;21323;-78
2021/01/29 14:13:43;;;;;;;18.00;10.95;;;;;;;2.09;73.88;98785.05;1767761;79;22386;-77
2021/01/29 14:17:15;;;;;;;17.20;10.03;;;;;;;2.11;74.11;98783.53;1697212;83;21261;-78
2021/01/29 14:20:33;;;;;;;17.67;10.00;;;;;;;2.15;74.00;98783.05;1673926;83;21287;-78
2021/01/29 14:23:45;;;;;;;13.68;9.33;;;;;;;2.12;73.72;98778.00;1788824;79;21165;-78
2021/01/29 14:27:04;;;;;;;14.10;9.73;;;;;;;2.10;73.70;98776.45;1783753;79;21295;-77
2021/01/29 14:30:27;;;;;;;13.18;9.05;;;;;;;2.02;73.48;98771.84;1784966;79;21652;-78
2021/01/29 14:33:58;;;;;;;17.75;9.60;;;;;;;1.94;73.72;98769.96;1777014;79;21177;-77
2021/01/29 14:37:08;;;;;;;15.40;9.95;;;;;;;1.85;73.83;98767.38;1780809;79;21185;-78
2021/01/29 14:40:45;;;;;;;17.05;9.68;;;;;;;1.78;73.96;98756.36;1748144;81;21217;-77
2021/01/29 14:44:29;;;;;;;14.83;9.68;;;;;;;1.75;74.43;98769.67;1745345;81;21351;-78
2021/01/29 14:47:43;;;;;;;15.98;9.90;;;;;;;1.77;74.62;98762.77;1751555;81;21289;-78
2021/01/29 14:51:17;;;;;;;15.50;9.55;;;;;;;1.77;74.82;98759.56;1760672;81;22195;-78
2021/01/29 14:54:26;;;;;;;16.90;9.88;;;;;;;1.73;74.82;98766.27;1761886;81;21311;-78
2021/01/29 14:57:47;;;;;;;18.27;9.90;;;;;;;1.71;74.89;98766.94;1762752;81;21303;-78
2021/01/29 15:00:53;;;;;;;17.62;10.45;;;;;;;1.70;75.15;98761.72;1763552;80;21572;-78
2021/01/29 15:04:27;;;;;;;26.80;14.33;;;;;;;1.74;75.32;98753.16;1769924;81;21255;-77
2021/01/29 15:07:42;;;;;;;25.77;13.85;;;;;;;1.77;75.29;98751.47;1771550;81;21310;-77
2021/01/29 15:10:47;;;;;;;17.82;11.28;;;;;;;1.73;75.23;98748.74;1771516;81;21327;-78
2021/01/29 15:14:01;;;;;;;25.65;16.87;;;;;;;1.68;75.41;98746.19;1771104;81;21223;-77
2021/01/29 15:17:07;;;;;;;26.05;16.25;;;;;;;1.64;75.56;98737.56;1762040;80;21213;-78
2021/01/29 15:20:48;;;;;;;22.85;14.40;;;;;;;1.61;75.92;98735.70;1782522;79;21323;-77
2021/01/29 15:23:57;;;;;;;31.33;17.25;;;;;;;1.61;75.97;98734.36;1802737;79;21358;-78
2021/01/29 15:27:04;;;;;;;32.55;17.62;;;;;;;1.60;76.15;98741.60;1785109;79;21220;-77
2021/01/29 15:30:20;;;;;;;25.27;17.35;;;;;;;1.59;76.33;98730.45;1802641;79;21820;-78
2021/01/29 15:33:44;;;;;;;30.92;17.92;;;;;;;1.61;76.55;98724.92;1760985;81;21277;-78
2021/01/29 15:36:59;;;;;;;26.25;16.60;;;;;;;1.57;76.69;98723.05;1760056;81;21301;-78
2021/01/29 15:40:16;;;;;;;23.18;14.20;;;;;;;1.51;76.95;98719.13;1759986;81;21308;-78
2021/01/29 15:43:41;;;;;;;17.77;11.30;;;;;;;1.48;77.36;98726.68;1758628;81;21304;-78
2021/01/29 15:46:54;;;;;;;22.07;12.98;;;;;;;1.45;77.59;98724.28;1765867;79;21209;-78
2021/01/29 15:49:59;;;;;;;20.82;12.80;;;;;;;1.40;77.98;98722.06;1711888;82;21287;-78
2021/01/29 15:53:05;;;;;;;23.50;12.33;;;;;;;1.41;78.24;98717.52;1771152;81;21724;-78
2021/01/29 15:56:39;;;;;;;23.25;14.45;;;;;;;1.44;78.40;98726.64;1771317;81;21668;-78